Time;durP1;ratioP1;P1;durP2;ratioP2;P2;SDS_P1;SDS_P2;PMS_P1;PMS_P2;Temp;Humidity;BMP_temperature;BMP_pressure;BME280_temperature;BME280_humidity;BME280_pressure;Samples;Min_cycle;Max_cycle;Signal;HPM_P1;HPM_P2
2023/06/04 00:01:21;;;;;;;7.70;1.35;;;;;;;9.21;52.73;102363.03;5070922;28;20513;-71
2023/06/04 00:03:47;;;;;;;4.55;0.85;;;;;;;9.16;52.87;102359.59;5057000;28;20485;-72
2023/06/04 00:06:13;;;;;;;3.92;1.30;;;;;;;9.15;53.26;102357.88;5070194;28;20042;-71
2023/06/04 00:08:38;;;;;;;8.93;1.95;;;;;;;9.00;53.14;102353.66;5061187;28;20047;-71
2023/06/04 00:11:04;;;;;;;3.45;1.23;;;;;;;8.96;53.41;102352.84;5073140;28;20244;-71
2023/06/04 00:13:31;;;;;;;6.93;2.10;;;;;;;9.05;53.03;102358.84;5069020;28;20047;-71
2023/06/04 00:15:59;;;;;;;3.78;1.65;;;;;;;9.09;52.84;102358.78;5071969;27;20122;-72
2023/06/04 00:18:25;;;;;;;6.13;1.92;;;;;;;9.02;53.15;102356.28;5067008;28;20050;-71
2023/06/04 00:20:50;;;;;;;4.25;1.67;;;;;;;8.99;53.14;102357.16;5072659;28;20046;-71
2023/06/04 00:23:16;;;;;;;4.18;1.83;;;;;;;8.96;53.00;102357.19;5069645;28;20043;-72
2023/06/04 00:25:41;;;;;;;5.38;2.38;;;;;;;8.89;53.62;102356.38;5069163;28;20040;-71
2023/06/04 00:28:09;;;;;;;10.25;2.10;;;;;;;8.89;53.75;102353.75;5068073;28;20035;-72
2023/06/04 00:30:35;;;;;;;3.88;1.65;;;;;;;8.96;53.37;102360.69;5101535;27;20044;-71
2023/06/04 00:33:00;;;;;;;8.77;1.88;;;;;;;8.84;53.68;102354.69;5075925;27;20050;-75
2023/06/04 00:35:26;;;;;;;8.00;2.38;;;;;;;8.81;53.57;102355.59;5074126;28;20555;-74
2023/06/04 00:37:51;;;;;;;6.68;2.40;;;;;;;8.75;53.69;102358.25;5075273;27;20043;-75
2023/06/04 00:40:17;;;;;;;6.70;2.42;;;;;;;8.75;54.21;102358.25;5058440;28;20047;-74
2023/06/04 00:42:44;;;;;;;5.38;2.60;;;;;;;8.75;54.17;102355.66;5090792;27;20740;-75
2023/06/04 00:45:10;;;;;;;5.70;2.13;;;;;;;8.94;53.59;102352.00;5072384;28;20046;-75
2023/06/04 00:47:36;;;;;;;4.25;2.35;;;;;;;8.95;53.55;102356.31;5078133;28;20036;-76
2023/06/04 00:50:02;;;;;;;4.38;2.80;;;;;;;8.88;53.70;102349.44;5073815;27;20052;-70
2023/06/04 00:52:28;;;;;;;8.45;2.65;;;;;;;8.80;54.03;102345.19;5053833;28;20111;-72
2023/06/04 00:54:54;;;;;;;6.57;2.40;;;;;;;8.84;53.53;102342.53;5101460;27;20406;-71
2023/06/04 00:57:25;;;;;;;5.03;2.83;;;;;;;8.87;53.29;102345.09;5069785;28;20043;-71
2023/06/04 00:59:50;;;;;;;5.97;3.05;;;;;;;8.74;53.66;102351.31;5069747;27;20367;-73
2023/06/04 01:02:22;;;;;;;5.57;3.08;;;;;;;8.71;54.47;102348.72;5102339;27;20889;-75
2023/06/04 01:04:54;;;;;;;8.10;3.05;;;;;;;8.77;53.99;102346.06;5072871;27;20039;-77
2023/06/04 01:07:22;;;;;;;4.10;2.95;;;;;;;8.76;53.86;102346.94;5071006;28;20229;-74
2023/06/04 01:09:49;;;;;;;5.63;2.85;;;;;;;8.74;53.74;102340.91;5074556;28;20704;-73
2023/06/04 01:12:14;;;;;;;8.55;3.05;;;;;;;8.71;53.76;102335.69;5075335;28;20090;-76
2023/06/04 01:14:40;;;;;;;6.10;3.35;;;;;;;8.72;53.98;102335.69;5073817;27;20623;-76
2023/06/04 01:17:29;;;;;;;7.55;3.47;;;;;;;8.71;53.91;102335.69;5105760;27;20110;-74
2023/06/04 01:19:59;;;;;;;7.70;3.13;;;;;;;8.66;54.20;102347.88;5087485;27;20087;-73
2023/06/04 01:22:35;;;;;;;7.65;3.95;;;;;;;8.67;54.03;102344.38;5057793;28;20065;-68
2023/06/04 01:25:31;;;;;;;4.22;3.80;;;;;;;8.79;53.64;102333.03;5071261;27;20650;-68
2023/06/04 01:27:57;;;;;;;6.45;2.78;;;;;;;8.66;53.86;102343.53;5064852;27;20040;-67
2023/06/04 01:30:25;;;;;;;8.25;3.28;;;;;;;8.67;53.71;102345.28;5057112;28;20033;-67
2023/06/04 01:32:54;;;;;;;6.18;3.55;;;;;;;8.52;53.88;102343.63;5051949;28;20156;-67
2023/06/04 01:35:21;;;;;;;7.93;3.30;;;;;;;8.43;54.13;102345.47;5071009;28;21146;-68
2023/06/04 01:37:47;;;;;;;3.95;2.42;;;;;;;8.43;54.05;102335.91;5074171;28;20042;-68
2023/06/04 01:40:13;;;;;;;3.90;2.25;;;;;;;8.46;54.15;102346.28;5073854;28;20236;-67
2023/06/04 01:42:38;;;;;;;8.65;3.13;;;;;;;8.48;54.42;102348.88;5053196;28;20027;-67
2023/06/04 01:45:07;;;;;;;5.95;3.17;;;;;;;8.54;53.91;102343.63;5070971;28;20039;-67
2023/06/04 01:47:33;;;;;;;8.57;3.63;;;;;;;8.41;53.76;102348.06;5072711;28;20032;-67
2023/06/04 01:49:59;;;;;;;6.28;3.00;;;;;;;8.41;53.72;102337.66;5061978;28;20039;-67
2023/06/04 01:52:24;;;;;;;10.90;4.22;;;;;;;8.42;54.18;102346.31;5069795;28;20067;-67
2023/06/04 01:54:52;;;;;;;5.20;3.22;;;;;;;8.47;53.78;102342.81;5068247;27;20225;-66
2023/06/04 01:57:21;;;;;;;9.93;2.67;;;;;;;8.48;53.85;102347.13;5070170;28;20043;-67
2023/06/04 01:59:47;;;;;;;4.47;3.00;;;;;;;8.58;53.76;102350.53;5082549;27;20047;-68
2023/06/04 02:02:14;;;;;;;7.35;3.67;;;;;;;8.52;53.47;102348.84;5049920;28;20584;-75
2023/06/04 02:04:42;;;;;;;5.82;3.17;;;;;;;8.42;53.63;102352.38;5072520;28;20043;-79
2023/06/04 02:07:09;;;;;;;7.82;3.60;;;;;;;8.40;53.69;102346.31;5084681;28;20027;-80
2023/06/04 02:09:35;;;;;;;5.63;2.63;;;;;;;8.25;53.68;102347.31;5060556;27;20911;-76
2023/06/04 02:12:00;;;;;;;11.45;2.72;;;;;;;8.28;53.85;102346.44;5043447;28;20051;-75
2023/06/04 02:14:27;;;;;;;6.55;3.22;;;;;;;8.29;53.87;102348.16;5041622;28;20134;-75
2023/06/04 02:16:57;;;;;;;12.65;3.35;;;;;;;8.36;53.42;102345.50;5055678;28;20159;-75
2023/06/04 02:19:25;;;;;;;4.75;3.17;;;;;;;8.30;53.35;102350.75;5048850;28;20150;-75
2023/06/04 02:21:52;;;;;;;5.15;2.45;;;;;;;8.29;53.14;102340.31;5054271;28;20050;-74
2023/06/04 02:24:17;;;;;;;6.65;2.50;;;;;;;8.23;53.53;102341.25;5049260;28;20063;-75
2023/06/04 02:26:42;;;;;;;3.78;2.25;;;;;;;8.11;53.22;102344.81;5053746;28;20029;-75
2023/06/04 02:29:08;;;;;;;7.20;2.53;;;;;;;8.10;53.54;102340.47;5057663;28;20112;-76
2023/06/04 02:31:33;;;;;;;5.82;3.08;;;;;;;8.04;53.59;102345.69;5058292;28;21388;-75
2023/06/04 02:33:59;;;;;;;7.32;2.97;;;;;;;7.96;53.70;102342.28;5064825;27;20449;-76
2023/06/04 02:36:24;;;;;;;7.38;2.53;;;;;;;7.92;53.77;102338.81;5058923;28;20568;-70
2023/06/04 02:38:51;;;;;;;5.85;3.53;;;;;;;7.98;54.10;102342.25;5053173;27;20543;-73
2023/06/04 02:41:16;;;;;;;4.22;2.90;;;;;;;7.96;53.67;102342.28;5054718;28;20560;-72
2023/06/04 02:43:42;;;;;;;4.28;2.35;;;;;;;8.00;53.65;102343.97;5053347;27;20044;-73
2023/06/04 02:46:07;;;;;;;3.03;2.17;;;;;;;7.98;53.68;102348.34;5054359;28;20036;-73
2023/06/04 02:48:33;;;;;;;5.32;2.85;;;;;;;8.07;53.89;102348.31;5050064;28;20047;-68
2023/06/04 02:50:58;;;;;;;4.65;2.15;;;;;;;8.00;53.63;102346.56;5063280;28;20046;-70
2023/06/04 02:53:24;;;;;;;6.30;2.70;;;;;;;7.86;53.82;102344.06;5052559;27;20045;-68
2023/06/04 02:55:53;;;;;;;7.10;2.40;;;;;;;7.87;53.89;102345.81;5053738;28;20642;-67
2023/06/04 02:58:18;;;;;;;8.70;3.10;;;;;;;7.92;53.55;102343.19;5055315;28;20052;-68
2023/06/04 03:00:45;;;;;;;4.55;1.90;;;;;;;7.89;53.50;102343.16;5074269;28;20036;-72
2023/06/04 03:03:10;;;;;;;8.50;2.35;;;;;;;7.89;53.86;102348.38;5070551;28;20067;-71
2023/06/04 03:05:36;;;;;;;7.60;2.45;;;;;;;7.95;53.53;102348.34;5078164;28;20940;-70
2023/06/04 03:08:03;;;;;;;5.32;2.03;;;;;;;8.03;53.26;102345.72;5078912;27;20048;-67
2023/06/04 03:10:29;;;;;;;6.50;1.88;;;;;;;8.08;53.23;102346.56;5056485;28;20062;-68
2023/06/04 03:12:55;;;;;;;7.55;1.45;;;;;;;8.05;53.39;102350.03;5046374;27;20032;-70
2023/06/04 03:15:20;;;;;;;4.75;2.22;;;;;;;8.04;53.25;102342.22;5078307;28;20161;-72
2023/06/04 03:17:46;;;;;;;2.80;1.45;;;;;;;7.99;53.18;102344.00;5074572;28;20135;-72
2023/06/04 03:20:12;;;;;;;5.40;1.95;;;;;;;7.97;53.04;102341.41;5074751;28;20400;-74
2023/06/04 03:22:38;;;;;;;4.03;2.03;;;;;;;7.83;53.30;102340.63;5072812;28;20028;-73
2023/06/04 03:25:08;;;;;;;5.25;1.92;;;;;;;7.83;53.73;102343.22;5099202;27;20032;-75
2023/06/04 03:27:33;;;;;;;4.60;1.65;;;;;;;7.93;53.44;102340.53;5062693;28;20125;-76
2023/06/04 03:29:59;;;;;;;5.68;2.28;;;;;;;7.95;53.76;102343.16;5084265;28;20042;-76
2023/06/04 03:32:27;;;;;;;7.45;1.88;;;;;;;7.88;53.67;102344.06;5076089;27;20097;-74
2023/06/04 03:34:53;;;;;;;2.75;1.13;;;;;;;7.95;53.68;102344.00;5098826;27;20044;-79
2023/06/04 03:37:18;;;;;;;6.57;1.23;;;;;;;8.00;53.51;102345.72;5086999;27;20767;-77
2023/06/04 03:39:44;;;;;;;4.65;1.60;;;;;;;7.99;54.05;102341.41;5078851;28;20081;-75
2023/06/04 03:42:13;;;;;;;8.93;1.30;;;;;;;8.02;54.56;102341.38;5073589;27;20342;-76
2023/06/04 03:44:38;;;;;;;9.95;1.25;;;;;;;8.11;54.53;102344.81;5041727;28;20164;-75
2023/06/04 03:47:04;;;;;;;6.22;1.20;;;;;;;8.18;54.66;102335.19;5039134;28;20401;-76
2023/06/04 03:49:30;;;;;;;2.28;1.00;;;;;;;8.28;54.42;102344.69;5050432;28;20051;-75
2023/06/04 03:51:56;;;;;;;3.03;0.95;;;;;;;8.25;54.46;102347.31;5072431;27;20143;-77
2023/06/04 03:54:25;;;;;;;4.82;1.45;;;;;;;8.31;54.85;102342.03;5074578;27;20131;-77
2023/06/04 03:56:51;;;;;;;3.97;0.90;;;;;;;8.44;54.45;102347.19;5085789;28;20036;-77
2023/06/04 03:59:16;;;;;;;3.80;0.80;;;;;;;8.50;54.15;102341.94;5051753;28;20442;-73
2023/06/04 04:01:42;;;;;;;4.18;1.55;;;;;;;8.63;54.47;102337.47;5080396;27;21511;-74
2023/06/04 04:04:08;;;;;;;7.80;1.27;;;;;;;8.73;54.34;102339.16;5061230;27;20032;-75
2023/06/04 04:06:35;;;;;;;4.32;1.08;;;;;;;8.85;53.93;102333.84;5041382;28;20082;-74
2023/06/04 04:09:03;;;;;;;6.10;1.00;;;;;;;8.97;53.65;102333.72;5065798;28;20075;-74
2023/06/04 04:11:29;;;;;;;7.90;1.55;;;;;;;9.08;53.40;102338.81;5073006;28;20500;-75
2023/06/04 04:13:54;;;;;;;6.55;0.90;;;;;;;9.14;53.95;102332.66;5052943;27;20047;-73
2023/06/04 04:16:24;;;;;;;5.85;0.85;;;;;;;9.22;53.69;102343.88;5071957;28;20417;-74
2023/06/04 04:18:50;;;;;;;5.63;1.00;;;;;;;9.35;53.33;102340.25;5054020;28;20412;-72
2023/06/04 04:21:16;;;;;;;4.78;0.95;;;;;;;9.44;53.33;102339.28;5077510;28;20077;-74
2023/06/04 04:23:49;;;;;;;5.57;0.90;;;;;;;9.55;53.19;102339.16;5054540;28;20051;-74
2023/06/04 04:26:16;;;;;;;12.30;1.17;;;;;;;9.69;53.10;102341.59;5053409;28;20035;-68
2023/06/04 04:28:43;;;;;;;7.65;1.27;;;;;;;9.79;52.94;102340.59;5068507;27;20404;-68
2023/06/04 04:31:09;;;;;;;3.88;0.93;;;;;;;9.87;52.56;102343.13;5040029;28;20184;-67
2023/06/04 04:33:39;;;;;;;9.20;1.13;;;;;;;9.95;52.59;102341.28;5064250;27;20043;-68
2023/06/04 04:36:12;;;;;;;3.00;0.60;;;;;;;10.01;52.51;102341.19;5073183;28;20027;-67
2023/06/04 04:38:42;;;;;;;5.22;1.00;;;;;;;10.19;52.24;102350.50;5075302;27;20093;-66
2023/06/04 04:41:08;;;;;;;7.43;0.82;;;;;;;10.30;51.88;102352.94;5059929;28;20134;-68
2023/06/04 04:43:39;;;;;;;9.05;0.90;;;;;;;10.38;51.82;102348.47;5055504;28;20038;-67
2023/06/04 04:46:13;;;;;;;5.68;1.25;;;;;;;10.49;51.14;102354.41;5103211;27;20563;-67
2023/06/04 04:48:42;;;;;;;6.88;0.95;;;;;;;10.53;51.17;102356.09;5039238;28;20040;-67
2023/06/04 04:51:07;;;;;;;11.00;2.58;;;;;;;10.56;52.08;102344.72;5069786;28;20037;-67
2023/06/04 04:53:33;;;;;;;7.63;1.13;;;;;;;10.49;52.09;102343.94;5045242;28;20527;-68
2023/06/04 04:55:59;;;;;;;8.00;0.95;;;;;;;10.59;51.85;102345.53;5058495;28;20138;-68
2023/06/04 04:58:25;;;;;;;5.97;1.35;;;;;;;10.95;51.42;102348.44;5058476;28;20603;-67
2023/06/04 05:00:53;;;;;;;3.45;0.85;;;;;;;11.36;50.38;102341.53;5073051;28;20049;-68
2023/06/04 05:03:18;;;;;;;6.50;1.05;;;;;;;12.82;46.35;102338.22;5061267;27;20402;-68
2023/06/04 05:05:44;;;;;;;4.53;0.90;;;;;;;14.55;41.93;102341.91;5054744;28;20039;-76
2023/06/04 05:08:11;;;;;;;5.32;0.98;;;;;;;15.73;40.33;102337.69;5061993;28;20051;-69
2023/06/04 05:10:40;;;;;;;8.77;1.05;;;;;;;16.65;37.40;102327.81;5074385;28;20516;-69
2023/06/04 05:13:56;;;;;;;3.60;0.57;;;;;;;17.22;36.08;102334.16;5084432;27;20078;-68
2023/06/04 05:16:22;;;;;;;5.75;0.70;;;;;;;16.97;36.44;102333.50;5046976;28;20098;-74
2023/06/04 05:18:51;;;;;;;8.98;0.82;;;;;;;17.88;34.82;102337.31;5053133;28;20036;-78
2023/06/04 05:21:20;;;;;;;4.68;0.82;;;;;;;17.64;35.09;102335.75;5058398;28;20123;-77
2023/06/04 05:23:57;;;;;;;15.13;1.17;;;;;;;18.19;34.37;102332.28;5056331;28;20123;-75
2023/06/04 05:26:27;;;;;;;3.28;0.95;;;;;;;18.39;33.79;102336.59;5048094;28;20150;-73
2023/06/04 05:28:56;;;;;;;4.35;0.65;;;;;;;19.00;32.44;102339.69;5034374;28;20068;-74
2023/06/04 05:31:28;;;;;;;5.57;1.40;;;;;;;19.51;32.26;102335.16;5040945;28;20064;-74
2023/06/04 05:33:57;;;;;;;3.22;0.50;;;;;;;19.79;31.26;102338.94;5042055;28;20877;-74
2023/06/04 05:36:26;;;;;;;4.18;0.77;;;;;;;19.64;31.59;102336.22;5052534;28;20330;-75
2023/06/04 05:38:59;;;;;;;4.07;0.77;;;;;;;19.56;31.55;102341.09;5034601;28;20371;-69
2023/06/04 05:41:31;;;;;;;4.05;0.70;;;;;;;19.85;31.03;102338.59;5070494;28;20033;-67
2023/06/04 05:43:58;;;;;;;4.93;0.65;;;;;;;19.61;31.67;102336.38;5050400;28;20040;-68
2023/06/04 05:46:26;;;;;;;5.28;0.57;;;;;;;19.15;32.03;102344.16;5063290;28;20450;-67
2023/06/04 05:48:53;;;;;;;5.22;1.13;;;;;;;19.68;32.02;102340.41;5060562;28;20519;-70
2023/06/04 05:51:21;;;;;;;3.65;0.50;;;;;;;20.33;30.56;102342.09;5071268;28;20566;-67
2023/06/04 05:53:47;;;;;;;2.83;0.35;;;;;;;20.18;30.39;102337.63;5040411;28;20036;-67
2023/06/04 05:56:13;;;;;;;3.42;0.77;;;;;;;20.57;30.15;102342.41;5049480;28;20178;-69
2023/06/04 05:58:40;;;;;;;3.65;0.68;;;;;;;20.93;29.67;102336.72;5078171;27;20139;-70
2023/06/04 06:01:07;;;;;;;7.43;0.57;;;;;;;20.58;28.83;102344.13;5082259;27;20173;-71
2023/06/04 06:03:33;;;;;;;2.88;0.38;;;;;;;19.66;29.91;102344.94;5057660;28;20052;-70
2023/06/04 06:06:00;;;;;;;5.18;0.68;;;;;;;19.75;29.55;102348.00;5045186;28;20039;-71
2023/06/04 06:08:26;;;;;;;3.28;0.40;;;;;;;20.13;29.61;102353.81;5043243;28;20096;-71
2023/06/04 06:10:53;;;;;;;4.80;0.70;;;;;;;20.65;28.56;102352.59;5055551;28;20957;-71
2023/06/04 06:13:18;;;;;;;1.30;0.22;;;;;;;20.09;29.20;102353.13;5049809;27;20045;-70
2023/06/04 06:15:48;;;;;;;4.28;1.02;;;;;;;20.45;29.00;102349.31;5045905;28;20033;-73
2023/06/04 06:18:15;;;;;;;4.10;0.30;;;;;;;21.46;26.78;102349.41;5071753;27;20609;-71
2023/06/04 06:20:41;;;;;;;1.35;0.30;;;;;;;21.38;27.32;102360.53;5082240;27;20035;-70
2023/06/04 06:23:09;;;;;;;4.57;0.60;;;;;;;21.88;26.44;102350.31;5064317;27;20040;-77
2023/06/04 06:25:40;;;;;;;2.17;0.40;;;;;;;21.19;26.45;102355.50;5035381;28;20040;-77
2023/06/04 06:28:11;;;;;;;5.20;0.32;;;;;;;21.50;25.59;102361.59;5053499;28;20420;-76
2023/06/04 06:30:44;;;;;;;2.17;0.30;;;;;;;22.00;25.48;102365.44;5087162;27;20123;-77
2023/06/04 06:33:10;;;;;;;6.28;0.80;;;;;;;21.33;25.56;102358.19;5054369;28;20609;-78
2023/06/04 06:35:36;;;;;;;5.32;0.40;;;;;;;21.46;25.92;102365.38;5053531;28;20264;-78
2023/06/04 06:38:02;;;;;;;3.92;0.57;;;;;;;22.05;25.03;102366.03;5061474;28;20116;-77
2023/06/04 06:40:30;;;;;;;3.03;0.40;;;;;;;22.43;25.32;102370.66;5054814;28;20246;-75
2023/06/04 06:42:56;;;;;;;2.47;0.77;;;;;;;21.48;24.73;102360.84;5065458;27;20703;-77
2023/06/04 06:45:22;;;;;;;3.60;0.47;;;;;;;21.29;25.04;102361.97;5054335;28;20043;-77
2023/06/04 06:47:48;;;;;;;4.97;0.35;;;;;;;21.49;24.53;102362.53;5053821;27;20101;-71
2023/06/04 06:50:14;;;;;;;7.93;0.95;;;;;;;22.07;23.63;102368.56;5053265;28;20024;-71
2023/06/04 06:52:40;;;;;;;4.05;0.35;;;;;;;22.35;23.06;102372.97;5048788;27;20032;-72
2023/06/04 06:55:06;;;;;;;4.78;0.90;;;;;;;22.29;22.93;102368.03;5084669;27;20028;-73
2023/06/04 06:57:33;;;;;;;2.58;0.40;;;;;;;22.49;23.14;102375.53;5059269;28;20143;-70
2023/06/04 06:59:59;;;;;;;3.00;0.57;;;;;;;22.64;22.76;102378.97;5050515;27;21065;-69
2023/06/04 07:02:25;;;;;;;5.05;0.70;;;;;;;22.72;22.62;102376.69;5055618;28;20135;-77
2023/06/04 07:04:51;;;;;;;1.20;0.50;;;;;;;22.83;22.81;102378.63;5052026;27;20913;-74
2023/06/04 07:07:17;;;;;;;5.63;0.52;;;;;;;22.74;23.31;102384.56;5052971;28;20653;-71
2023/06/04 07:09:42;;;;;;;6.15;0.45;;;;;;;23.57;22.70;102384.97;5051370;27;20080;-73
2023/06/04 07:12:08;;;;;;;5.13;0.70;;;;;;;24.06;21.15;102385.03;5044843;28;20040;-77
2023/06/04 07:14:33;;;;;;;2.80;0.57;;;;;;;23.05;22.60;102387.78;5050871;27;20086;-77
2023/06/04 07:17:00;;;;;;;2.10;0.40;;;;;;;23.28;22.88;102392.41;5054094;28;20273;-72
2023/06/04 07:19:25;;;;;;;5.65;0.82;;;;;;;24.04;21.55;102395.84;5050587;27;20037;-69
2023/06/04 07:21:55;;;;;;;3.38;0.90;;;;;;;24.37;21.36;102383.59;5051570;28;20051;-67
2023/06/04 07:24:21;;;;;;;2.47;0.50;;;;;;;24.41;21.02;102390.41;5053339;27;20043;-66
2023/06/04 07:26:47;;;;;;;3.35;0.55;;;;;;;24.62;20.36;102382.63;5048526;28;20106;-66
2023/06/04 07:29:12;;;;;;;4.53;0.60;;;;;;;24.70;20.24;102387.38;5082935;27;20047;-67
2023/06/04 07:31:38;;;;;;;4.50;0.40;;;;;;;23.48;21.03;102382.97;5051790;28;20440;-68
2023/06/04 07:34:04;;;;;;;1.92;0.40;;;;;;;24.36;20.74;102393.44;5051401;27;20064;-70
2023/06/04 07:36:30;;;;;;;4.85;0.73;;;;;;;23.54;21.46;102387.88;5052573;28;20138;-69
2023/06/04 07:38:56;;;;;;;1.40;0.32;;;;;;;23.12;21.86;102383.72;5050603;27;20045;-68
2023/06/04 07:41:22;;;;;;;3.05;0.50;;;;;;;23.11;22.15;102388.19;5053904;28;20480;-70
2023/06/04 07:43:48;;;;;;;2.83;0.30;;;;;;;24.20;19.33;102388.38;5065292;27;20040;-69
2023/06/04 07:46:13;;;;;;;4.18;0.30;;;;;;;23.58;20.46;102383.16;5082714;27;20043;-69
2023/06/04 07:48:39;;;;;;;1.98;0.43;;;;;;;23.80;20.26;102385.97;5070143;27;20090;-68
2023/06/04 07:51:05;;;;;;;1.25;0.30;;;;;;;23.28;18.97;102379.06;5071624;28;20036;-69
2023/06/04 07:53:30;;;;;;;1.17;0.28;;;;;;;23.34;19.81;102378.63;5071823;27;20158;-69
2023/06/04 07:55:57;;;;;;;3.88;0.35;;;;;;;22.68;19.52;102375.19;5072431;27;20035;-68
2023/06/04 07:58:22;;;;;;;1.58;0.17;;;;;;;23.56;18.52;102366.41;5071172;27;20071;-69
2023/06/04 08:00:48;;;;;;;3.78;0.60;;;;;;;24.18;18.31;102387.66;5070317;27;20127;-69
2023/06/04 08:03:15;;;;;;;3.15;0.43;;;;;;;23.95;19.06;102378.69;5068276;27;20121;-68
2023/06/04 08:05:40;;;;;;;3.40;0.50;;;;;;;24.20;19.69;102376.84;5066593;27;20130;-67
2023/06/04 08:08:06;;;;;;;1.42;0.30;;;;;;;24.23;19.61;102385.47;5067134;27;20100;-69
2023/06/04 08:10:32;;;;;;;2.53;0.60;;;;;;;24.62;18.66;102382.63;5071493;27;20111;-68
2023/06/04 08:12:57;;;;;;;1.20;0.30;;;;;;;24.57;19.06;102377.63;5068029;27;20032;-70
2023/06/04 08:15:23;;;;;;;2.33;0.50;;;;;;;24.44;19.59;102384.88;5072483;27;20063;-69
2023/06/04 08:17:49;;;;;;;3.70;0.43;;;;;;;23.71;19.30;102391.97;5071163;27;20154;-68
2023/06/04 08:20:14;;;;;;;1.63;0.60;;;;;;;23.23;19.85;102389.19;5071663;27;20118;-69
2023/06/04 08:22:40;;;;;;;2.33;0.50;;;;;;;24.83;19.37;102380.94;5071765;27;20356;-68
2023/06/04 08:25:07;;;;;;;1.10;0.30;;;;;;;24.93;19.30;102390.91;5069403;27;20039;-69
2023/06/04 08:27:32;;;;;;;2.72;0.40;;;;;;;25.14;19.40;102389.28;5071462;28;20063;-69
2023/06/04 08:29:58;;;;;;;1.95;0.30;;;;;;;24.53;20.02;102397.53;5070795;27;20444;-70
2023/06/04 08:32:24;;;;;;;1.70;0.40;;;;;;;23.90;21.72;102401.34;5070768;27;20036;-70
2023/06/04 08:34:50;;;;;;;2.78;0.77;;;;;;;23.52;21.90;102395.13;5070236;27;20048;-69
2023/06/04 08:37:17;;;;;;;4.25;0.90;;;;;;;24.09;21.89;102401.69;5067943;27;20043;-70
2023/06/04 08:39:43;;;;;;;2.45;0.30;;;;;;;23.60;22.47;102406.09;5070806;27;20266;-68
2023/06/04 08:42:29;;;;;;;6.57;0.60;;;;;;;23.51;21.77;102401.41;5069229;27;20032;-69
2023/06/04 08:44:57;;;;;;;1.58;0.32;;;;;;;23.61;21.95;102398.94;5069967;27;20031;-70
2023/06/04 08:47:24;;;;;;;4.65;0.43;;;;;;;24.02;21.44;102400.44;5070511;27;20043;-68
2023/06/04 08:49:51;;;;;;;5.60;0.35;;;;;;;23.78;21.85;102401.22;5070614;27;20040;-69
2023/06/04 08:52:17;;;;;;;3.83;0.30;;;;;;;24.03;21.50;102403.00;5068468;27;20103;-69
2023/06/04 08:54:43;;;;;;;3.65;0.60;;;;;;;24.26;21.16;102399.56;5078883;28;20040;-69
2023/06/04 08:57:09;;;;;;;2.65;0.60;;;;;;;23.88;21.23;102404.13;5071094;27;20027;-69
2023/06/04 08:59:35;;;;;;;2.60;0.40;;;;;;;24.50;21.36;102411.13;5069148;27;20047;-69
2023/06/04 09:02:01;;;;;;;2.30;0.40;;;;;;;23.88;21.10;102413.94;5068318;28;20566;-69
2023/06/04 09:04:28;;;;;;;1.23;0.35;;;;;;;23.36;21.81;102414.03;5070395;28;20052;-69
2023/06/04 09:06:55;;;;;;;2.42;0.60;;;;;;;23.61;21.24;102399.81;5067946;27;20408;-69
2023/06/04 09:09:23;;;;;;;4.13;0.50;;;;;;;22.86;22.73;102407.72;5057267;28;20072;-69
2023/06/04 09:11:52;;;;;;;3.35;0.50;;;;;;;23.37;22.78;102410.41;5090997;27;20219;-68
2023/06/04 09:14:18;;;;;;;3.00;0.35;;;;;;;23.54;21.97;102406.56;5068854;28;20109;-67
2023/06/04 09:16:49;;;;;;;1.73;0.40;;;;;;;23.50;22.18;102398.84;5070997;28;20070;-69
2023/06/04 09:19:18;;;;;;;1.55;0.30;;;;;;;23.69;22.14;102404.56;5070279;27;20552;-68
2023/06/04 09:21:51;;;;;;;1.58;0.38;;;;;;;22.92;22.49;102404.63;5064772;28;20035;-69
2023/06/04 09:24:21;;;;;;;2.40;0.40;;;;;;;22.89;22.84;102410.16;5065265;27;20056;-69
2023/06/04 09:26:47;;;;;;;1.00;0.30;;;;;;;22.28;23.71;102403.63;5068196;28;20032;-68
2023/06/04 09:29:13;;;;;;;2.47;0.40;;;;;;;22.02;23.30;102402.63;5065674;28;20560;-69
2023/06/04 09:31:43;;;;;;;5.57;0.43;;;;;;;22.00;24.47;102408.03;5066841;28;20117;-69
2023/06/04 09:34:09;;;;;;;9.82;0.90;;;;;;;21.61;25.31;102409.66;5068320;28;20504;-67
2023/06/04 09:36:37;;;;;;;3.00;0.35;;;;;;;21.44;25.56;102412.47;5070550;27;20041;-68
2023/06/04 09:39:04;;;;;;;5.85;0.40;;;;;;;20.71;26.30;102418.66;5076230;27;20131;-67
2023/06/04 09:41:30;;;;;;;3.40;0.43;;;;;;;20.80;26.44;102418.09;5073317;27;20031;-68
2023/06/04 09:44:02;;;;;;;2.22;0.32;;;;;;;20.35;27.00;102419.84;5070735;27;20071;-66
2023/06/04 09:46:29;;;;;;;2.30;0.80;;;;;;;20.27;27.84;102424.72;5075441;27;20032;-68
2023/06/04 09:49:05;;;;;;;3.88;0.30;;;;;;;19.68;29.82;102425.28;5072599;27;20509;-68
2023/06/04 09:51:31;;;;;;;2.30;0.93;;;;;;;18.92;29.40;102426.63;5073201;27;20036;-69
2023/06/04 09:54:03;;;;;;;1.83;0.47;;;;;;;19.23;29.34;102429.44;5078662;27;20048;-67
2023/06/04 09:56:29;;;;;;;5.55;0.57;;;;;;;19.30;28.69;102424.66;5090694;27;20059;-68
2023/06/04 09:59:02;;;;;;;2.38;0.45;;;;;;;19.45;28.72;102425.63;5056622;27;20536;-68
2023/06/04 10:01:30;;;;;;;7.53;0.50;;;;;;;19.57;28.65;102426.78;5106938;27;20031;-68
2023/06/04 10:03:58;;;;;;;5.88;0.30;;;;;;;19.95;28.62;102418.53;5074450;27;20066;-68
2023/06/04 10:06:26;;;;;;;2.92;0.63;;;;;;;19.58;29.16;102429.38;5071990;27;20059;-67
2023/06/04 10:08:57;;;;;;;3.53;0.52;;;;;;;19.05;29.44;102431.22;5075770;27;20085;-68
2023/06/04 10:11:30;;;;;;;8.10;0.40;;;;;;;19.16;29.52;102428.03;5077144;27;20039;-68
2023/06/04 10:14:28;;;;;;;4.63;0.73;;;;;;;19.49;28.37;102432.50;5073971;27;20032;-66
2023/06/04 10:16:58;;;;;;;2.65;0.60;;;;;;;19.03;29.93;102430.47;5077096;27;20061;-66
2023/06/04 10:19:25;;;;;;;2.53;0.55;;;;;;;19.56;28.51;102433.91;5076641;27;20066;-67
2023/06/04 10:21:52;;;;;;;4.07;0.50;;;;;;;19.58;28.25;102437.34;5076103;27;20069;-68
2023/06/04 10:24:19;;;;;;;3.40;0.45;;;;;;;19.09;29.30;102429.28;5073611;27;20051;-69
2023/06/04 10:26:45;;;;;;;1.88;0.43;;;;;;;18.95;29.77;102427.34;5072785;27;20041;-67
2023/06/04 10:29:14;;;;;;;3.40;1.00;;;;;;;18.99;29.72;102428.03;5069812;27;20510;-67
2023/06/04 10:31:41;;;;;;;5.03;0.40;;;;;;;19.40;28.31;102428.53;5065338;27;20275;-68
2023/06/04 10:34:07;;;;;;;5.00;1.20;;;;;;;19.25;29.43;102446.09;5075972;27;20058;-67
2023/06/04 10:36:45;;;;;;;3.42;0.30;;;;;;;19.23;29.25;102445.34;5080534;27;20036;-68
2023/06/04 10:39:11;;;;;;;3.05;0.40;;;;;;;18.75;28.76;102448.66;5091739;27;20036;-67
2023/06/04 10:41:37;;;;;;;6.03;0.80;;;;;;;18.89;30.46;102448.84;5076825;27;20049;-68
2023/06/04 10:44:02;;;;;;;5.68;0.80;;;;;;;18.73;30.29;102453.19;5072700;27;20470;-67
2023/06/04 10:46:41;;;;;;;3.92;0.52;;;;;;;18.69;30.23;102447.16;5076104;27;20061;-68
2023/06/04 10:49:10;;;;;;;2.42;0.60;;;;;;;19.43;28.82;102454.03;5069482;27;20048;-67
2023/06/04 10:51:39;;;;;;;5.20;1.00;;;;;;;19.40;29.56;102456.84;5069258;27;20134;-67
2023/06/04 10:54:05;;;;;;;4.07;0.63;;;;;;;19.63;29.73;102455.66;5066815;27;20158;-67
2023/06/04 10:56:32;;;;;;;3.75;0.50;;;;;;;19.50;29.34;102460.72;5071958;27;20035;-68
2023/06/04 10:58:59;;;;;;;1.73;0.43;;;;;;;19.28;29.30;102455.72;5068325;27;20046;-67
2023/06/04 11:01:31;;;;;;;3.15;0.60;;;;;;;19.39;28.47;102460.41;5071839;27;20323;-66
2023/06/04 11:03:57;;;;;;;6.70;0.82;;;;;;;19.37;28.83;102455.22;5077135;27;20493;-68
2023/06/04 11:06:27;;;;;;;2.92;0.47;;;;;;;19.62;29.12;102448.66;5078821;27;20042;-67
2023/06/04 11:09:04;;;;;;;2.75;0.38;;;;;;;19.38;29.51;102459.56;5068556;27;20261;-66
2023/06/04 11:11:29;;;;;;;2.35;0.45;;;;;;;20.12;28.41;102451.16;5073088;27;20035;-68
2023/06/04 11:13:55;;;;;;;4.03;0.70;;;;;;;19.41;28.82;102442.63;5070039;27;20256;-67
2023/06/04 11:16:22;;;;;;;4.60;0.57;;;;;;;19.25;30.10;102456.69;5070243;27;20047;-68
2023/06/04 11:19:22;;;;;;;6.60;0.40;;;;;;;19.46;29.06;102448.56;5070104;27;20035;-67
2023/06/04 11:21:48;;;;;;;2.10;0.28;;;;;;;19.98;28.87;102445.78;5069331;27;20335;-67
2023/06/04 11:24:15;;;;;;;2.28;0.45;;;;;;;20.11;27.72;102441.50;5067276;27;20062;-67
2023/06/04 11:26:41;;;;;;;2.92;0.50;;;;;;;20.32;27.84;102439.44;5070516;27;20624;-67
2023/06/04 11:29:11;;;;;;;4.25;1.15;;;;;;;20.09;28.22;102442.53;5069936;28;20047;-67
2023/06/04 11:31:48;;;;;;;4.80;0.45;;;;;;;19.94;28.50;102444.22;5065468;28;20067;-67